Time;durP1;ratioP1;P1;durP2;ratioP2;P2;SDS_P1;SDS_P2;PMS_P1;PMS_P2;Temp;Humidity;BMP_temperature;BMP_pressure;BME280_temperature;BME280_humidity;BME280_pressure;Samples;Min_cycle;Max_cycle;Signal;HPM_P1;HPM_P2
2022/04/25 00:01:16;;;;;;;1.43;1.00;;;12.00;96.10;;;;;;5037407;28;20828;-77
2022/04/25 00:03:43;;;;;;;1.40;1.00;;;12.00;97.30;;;;;;5047231;28;20486;-75
2022/04/25 00:06:12;;;;;;;1.40;0.90;;;11.90;97.90;;;;;;5043758;28;21303;-72
2022/04/25 00:08:39;;;;;;;1.40;1.10;;;11.80;98.20;;;;;;5039975;28;20478;-72
2022/04/25 00:11:06;;;;;;;1.47;1.00;;;11.70;98.20;;;;;;5043062;28;20466;-73
2022/04/25 00:13:33;;;;;;;1.40;0.93;;;11.60;98.20;;;;;;5048277;28;20564;-73
2022/04/25 00:16:00;;;;;;;1.47;1.00;;;11.40;98.20;;;;;;5046386;28;21016;-73
2022/04/25 00:18:27;;;;;;;1.43;1.00;;;11.20;98.20;;;;;;5046846;28;20988;-75
2022/04/25 00:20:55;;;;;;;1.50;1.10;;;11.00;98.20;;;;;;5045927;28;20470;-76
2022/04/25 00:23:23;;;;;;;1.47;1.03;;;10.80;98.20;;;;;;5047989;28;20492;-75
2022/04/25 00:25:50;;;;;;;1.50;1.20;;;10.60;98.20;;;;;;5047951;28;20489;-76
2022/04/25 00:28:16;;;;;;;1.43;1.00;;;10.40;98.20;;;;;;5048229;28;20454;-76
2022/04/25 00:30:43;;;;;;;1.43;1.00;;;10.30;98.20;;;;;;5039454;28;20463;-77
2022/04/25 00:33:10;;;;;;;1.43;1.00;;;10.10;98.20;;;;;;5047713;28;20478;-78
2022/04/25 00:35:37;;;;;;;1.47;1.10;;;10.00;98.20;;;;;;5050147;28;20493;-78
2022/04/25 00:38:04;;;;;;;1.50;1.10;;;9.90;98.20;;;;;;5050139;28;20992;-79
2022/04/25 00:40:32;;;;;;;1.43;1.00;;;9.80;98.20;;;;;;5049176;28;20462;-80
2022/04/25 00:42:59;;;;;;;1.50;1.10;;;9.60;98.20;;;;;;5041606;28;21001;-78
2022/04/25 00:45:27;;;;;;;1.43;1.00;;;9.50;98.20;;;;;;5040154;28;20467;-76
2022/04/25 00:47:54;;;;;;;1.50;1.10;;;9.50;98.20;;;;;;5046948;28;20459;-77
2022/04/25 00:50:21;;;;;;;1.40;1.00;;;9.40;98.20;;;;;;5051142;28;20965;-77
2022/04/25 00:52:47;;;;;;;1.50;1.00;;;9.40;98.20;;;;;;5046625;28;21013;-78
2022/04/25 00:55:14;;;;;;;1.50;1.10;;;9.40;98.20;;;;;;5052318;28;20492;-77
2022/04/25 00:57:43;;;;;;;1.50;1.10;;;9.40;98.20;;;;;;5053041;28;20464;-77
2022/04/25 01:00:12;;;;;;;1.50;1.10;;;9.50;98.20;;;;;;5052243;28;20469;-78
2022/04/25 01:02:40;;;;;;;1.43;1.00;;;9.50;98.20;;;;;;5043018;28;20493;-79
2022/04/25 01:05:08;;;;;;;1.50;1.20;;;9.60;98.20;;;;;;5056161;28;20964;-79
2022/04/25 01:07:37;;;;;;;1.50;1.10;;;9.70;98.20;;;;;;5056115;28;20482;-79
2022/04/25 01:10:04;;;;;;;1.43;1.10;;;9.70;98.20;;;;;;5055967;28;21079;-79
2022/04/25 01:12:31;;;;;;;1.60;1.50;;;9.80;98.20;;;;;;5055587;28;20482;-79
2022/04/25 01:15:01;;;;;;;1.50;1.10;;;9.70;98.20;;;;;;5057139;28;20470;-78
2022/04/25 01:17:28;;;;;;;1.47;1.00;;;9.60;98.20;;;;;;5056559;28;20848;-80
2022/04/25 01:19:55;;;;;;;1.50;1.07;;;9.50;98.20;;;;;;5055832;28;20470;-79
2022/04/25 01:22:28;;;;;;;1.50;1.10;;;9.40;98.20;;;;;;5053959;28;20504;-78
2022/04/25 01:27:41;;;;;;;1.50;1.13;;;9.30;98.20;;;;;;5053749;28;20496;-79
2022/04/25 01:30:09;;;;;;;1.50;1.20;;;9.20;98.20;;;;;;5049866;28;20525;-80
2022/04/25 01:32:37;;;;;;;5.07;3.80;;;9.30;98.20;;;;;;5049350;28;20493;-79
2022/04/25 01:35:05;;;;;;;1.50;1.20;;;9.30;98.20;;;;;;5052374;28;20470;-78
2022/04/25 01:40:17;;;;;;;1.50;1.20;;;9.30;98.20;;;;;;5055385;28;20462;-79
2022/04/25 01:42:44;;;;;;;1.50;1.00;;;9.20;98.20;;;;;;5055831;28;21013;-79
2022/04/25 01:45:11;;;;;;;1.43;1.07;;;9.20;98.20;;;;;;5065908;28;20488;-79
2022/04/25 01:47:40;;;;;;;1.47;1.10;;;9.20;98.20;;;;;;5047840;28;20570;-79
2022/04/25 01:50:08;;;;;;;1.47;1.10;;;9.30;98.20;;;;;;5042771;28;20455;-80
2022/04/25 01:52:36;;;;;;;1.50;1.10;;;9.30;98.20;;;;;;5044497;28;20482;-77
2022/04/25 01:55:05;;;;;;;1.50;1.10;;;9.30;98.20;;;;;;5045096;28;20489;-80
2022/04/25 01:57:33;;;;;;;1.50;1.20;;;9.30;98.20;;;;;;5047588;28;20585;-80
2022/04/25 02:00:00;;;;;;;1.50;1.10;;;9.30;98.20;;;;;;5051279;28;20462;-79
2022/04/25 02:02:27;;;;;;;1.50;1.20;;;9.30;98.20;;;;;;5043919;28;20486;-80
2022/04/25 02:04:55;;;;;;;1.50;1.13;;;9.30;98.20;;;;;;5054374;28;20980;-79
2022/04/25 02:07:22;;;;;;;1.50;1.00;;;9.40;98.20;;;;;;5059715;28;21009;-79
2022/04/25 02:09:49;;;;;;;1.67;1.57;;;9.40;98.20;;;;;;5055570;28;20473;-80
2022/04/25 02:12:16;;;;;;;1.50;1.10;;;9.30;98.20;;;;;;5052090;28;20485;-79
2022/04/25 02:14:46;;;;;;;1.43;1.10;;;9.30;98.20;;;;;;5053955;28;20466;-79
2022/04/25 02:17:14;;;;;;;1.47;1.10;;;9.30;98.20;;;;;;5049211;28;20513;-80
2022/04/25 02:19:44;;;;;;;3.00;2.80;;;9.30;98.20;;;;;;5054887;28;20653;-80
2022/04/25 02:22:11;;;;;;;1.47;1.10;;;9.30;98.20;;;;;;5052853;28;20540;-80
2022/04/25 02:24:40;;;;;;;1.40;1.10;;;9.20;98.20;;;;;;5055029;28;21131;-80
2022/04/25 02:27:07;;;;;;;1.50;1.20;;;9.20;98.20;;;;;;5053520;28;20564;-80
2022/04/25 02:29:38;;;;;;;1.47;1.20;;;9.20;98.20;;;;;;5051814;28;20462;-80
2022/04/25 02:32:09;;;;;;;1.50;1.20;;;9.20;98.20;;;;;;5043132;28;20483;-80
2022/04/25 02:34:56;;;;;;;1.50;1.20;;;9.20;98.20;;;;;;5052422;28;20504;-79
2022/04/25 02:37:34;;;;;;;1.50;1.20;;;9.20;98.20;;;;;;5052805;28;20991;-79
2022/04/25 02:40:01;;;;;;;1.50;1.30;;;9.20;98.20;;;;;;5049372;28;20462;-80
2022/04/25 02:42:28;;;;;;;1.50;1.10;;;9.10;98.20;;;;;;5045118;28;20986;-80
2022/04/25 02:44:54;;;;;;;1.50;1.20;;;9.10;98.20;;;;;;5051133;28;20573;-80
2022/04/25 02:47:23;;;;;;;1.50;1.10;;;9.10;98.20;;;;;;5052679;28;20564;-80
2022/04/25 02:49:49;;;;;;;1.50;1.20;;;9.10;98.20;;;;;;5051465;28;20469;-79
2022/04/25 02:52:16;;;;;;;1.47;1.10;;;9.10;98.20;;;;;;5049529;28;20494;-80
2022/04/25 02:54:44;;;;;;;1.50;1.10;;;9.10;98.20;;;;;;5053289;28;20462;-80
2022/04/25 02:57:12;;;;;;;1.47;1.10;;;9.10;98.20;;;;;;5050645;28;20470;-80
2022/04/25 02:59:39;;;;;;;1.43;1.10;;;9.10;98.20;;;;;;5046079;28;20470;-80
2022/04/25 03:02:05;;;;;;;1.47;1.10;;;9.10;98.20;;;;;;5041632;28;20492;-80
2022/04/25 03:04:34;;;;;;;1.50;1.10;;;9.20;98.20;;;;;;5052896;28;20474;-80
2022/04/25 03:07:01;;;;;;;1.50;1.20;;;9.20;98.20;;;;;;5052202;28;20489;-79
2022/04/25 03:09:28;;;;;;;1.47;1.10;;;9.10;98.20;;;;;;5051306;28;20497;-80
2022/04/25 03:11:57;;;;;;;1.50;1.20;;;9.10;98.20;;;;;;5050546;28;20482;-79
2022/04/25 03:14:26;;;;;;;1.50;1.10;;;9.10;98.20;;;;;;5053641;28;20462;-80
2022/04/25 03:16:52;;;;;;;1.50;1.10;;;9.10;98.20;;;;;;5048889;28;20455;-79
2022/04/25 03:19:19;;;;;;;1.50;1.20;;;9.10;98.20;;;;;;5053076;28;20848;-80
2022/04/25 03:21:51;;;;;;;1.50;1.10;;;9.00;98.20;;;;;;5051681;28;20485;-79
2022/04/25 03:24:18;;;;;;;1.47;1.10;;;9.00;98.20;;;;;;5053624;28;21045;-80
2022/04/25 03:26:45;;;;;;;1.50;1.10;;;9.00;98.20;;;;;;5048932;28;20482;-80
2022/04/25 03:29:13;;;;;;;1.47;1.10;;;9.00;98.20;;;;;;5052358;28;20466;-80
2022/04/25 03:31:40;;;;;;;1.50;1.10;;;9.00;98.20;;;;;;5036573;28;20459;-80
2022/04/25 03:34:07;;;;;;;1.50;1.20;;;9.00;98.20;;;;;;5048456;28;20462;-80
2022/04/25 03:36:34;;;;;;;1.50;1.10;;;9.00;98.20;;;;;;5051786;28;20455;-79
2022/04/25 03:39:02;;;;;;;1.50;1.20;;;9.00;98.20;;;;;;5053484;28;20455;-79
2022/04/25 03:41:31;;;;;;;1.50;1.10;;;9.00;98.20;;;;;;5050279;28;20462;-79
2022/04/25 03:43:58;;;;;;;1.50;1.20;;;9.10;98.20;;;;;;5053189;28;20469;-79
2022/04/25 03:46:25;;;;;;;1.50;1.20;;;9.00;98.20;;;;;;5051534;28;20466;-79
2022/04/25 03:48:54;;;;;;;1.50;1.20;;;9.00;98.20;;;;;;5051661;28;20470;-79
2022/04/25 03:51:21;;;;;;;1.50;1.20;;;8.90;98.20;;;;;;5049366;28;20549;-79
2022/04/25 03:53:48;;;;;;;1.50;1.30;;;8.90;98.20;;;;;;5052796;28;20490;-80
2022/04/25 03:59:01;;;;;;;1.50;1.10;;;8.80;98.20;;;;;;5047586;28;20445;-80
2022/04/25 04:01:27;;;;;;;1.43;1.20;;;8.80;98.20;;;;;;5043500;28;20451;-79
2022/04/25 04:03:54;;;;;;;1.50;1.20;;;8.80;98.20;;;;;;5041417;28;20459;-79
2022/04/25 04:06:21;;;;;;;1.50;1.10;;;8.80;98.20;;;;;;5044352;28;21028;-79
2022/04/25 04:08:48;;;;;;;1.50;1.30;;;8.80;98.20;;;;;;5048254;28;20897;-80
2022/04/25 04:11:16;;;;;;;1.50;1.10;;;8.90;98.20;;;;;;5040174;28;20470;-80
2022/04/25 04:13:45;;;;;;;1.50;1.20;;;8.80;98.20;;;;;;5045097;28;20514;-78
2022/04/25 04:16:12;;;;;;;1.50;1.10;;;8.80;98.20;;;;;;5049552;28;20551;-79
2022/04/25 04:18:41;;;;;;;1.50;1.10;;;8.80;98.20;;;;;;5051296;28;20553;-80
2022/04/25 04:21:09;;;;;;;1.50;1.20;;;8.80;98.20;;;;;;5048705;28;20470;-79
2022/04/25 04:23:36;;;;;;;1.50;1.10;;;8.70;98.20;;;;;;5052534;28;20882;-79
2022/04/25 04:26:03;;;;;;;1.50;1.20;;;8.70;98.20;;;;;;5052290;28;20462;-79
2022/04/25 04:28:31;;;;;;;1.50;1.20;;;8.70;98.20;;;;;;5045838;28;20788;-79
2022/04/25 04:30:59;;;;;;;1.50;1.20;;;8.70;98.20;;;;;;5048527;28;20458;-79
2022/04/25 04:33:26;;;;;;;1.47;1.10;;;8.70;98.20;;;;;;5048883;28;20557;-80
2022/04/25 04:38:38;;;;;;;1.50;1.20;;;8.70;98.20;;;;;;5051422;28;20445;-80
2022/04/25 04:41:04;;;;;;;1.47;1.17;;;8.70;98.20;;;;;;5052122;28;20472;-79
2022/04/25 04:43:32;;;;;;;1.50;1.20;;;8.70;98.20;;;;;;5054132;28;20879;-80
2022/04/25 04:45:59;;;;;;;1.50;1.20;;;8.80;98.20;;;;;;5053660;28;20458;-80
2022/04/25 04:48:26;;;;;;;1.50;1.30;;;8.70;98.20;;;;;;5054804;28;20486;-80
2022/04/25 04:50:55;;;;;;;1.50;1.20;;;8.70;98.20;;;;;;5052932;28;20472;-81
2022/04/25 04:53:22;;;;;;;1.50;1.20;;;8.80;98.20;;;;;;5054948;28;20575;-80
2022/04/25 04:55:49;;;;;;;1.50;1.30;;;8.80;98.20;;;;;;5053309;28;20601;-80
2022/04/25 04:58:16;;;;;;;2.17;1.50;;;8.80;98.20;;;;;;5056426;28;20476;-80
2022/04/25 05:00:44;;;;;;;1.50;1.10;;;8.80;98.20;;;;;;5048026;28;20463;-80
2022/04/25 05:03:13;;;;;;;1.50;1.20;;;8.80;98.20;;;;;;5046200;28;20486;-80
2022/04/25 05:05:40;;;;;;;1.50;1.20;;;8.90;98.20;;;;;;5055173;28;20466;-80
2022/04/25 05:08:07;;;;;;;1.47;1.10;;;8.90;98.20;;;;;;5054767;28;20793;-80
2022/04/25 05:10:34;;;;;;;1.47;1.17;;;9.00;98.20;;;;;;5054596;28;20480;-80
2022/04/25 05:13:01;;;;;;;1.50;1.20;;;9.10;98.20;;;;;;5054537;28;20592;-80
2022/04/25 05:15:28;;;;;;;1.50;1.10;;;9.10;98.20;;;;;;5052187;28;20462;-80
2022/04/25 05:17:58;;;;;;;1.50;1.10;;;9.10;98.20;;;;;;5046007;28;20463;-80
2022/04/25 05:20:25;;;;;;;1.47;1.10;;;9.20;98.20;;;;;;5048648;28;20599;-80
2022/04/25 05:23:01;;;;;;;1.50;1.20;;;9.30;98.20;;;;;;5050986;28;20478;-80
2022/04/25 05:25:29;;;;;;;1.47;1.10;;;9.30;98.20;;;;;;5055655;28;20465;-80
2022/04/25 05:27:57;;;;;;;1.50;1.20;;;9.40;98.20;;;;;;5053210;28;20490;-81
2022/04/25 05:30:25;;;;;;;1.50;1.10;;;9.50;98.20;;;;;;5046329;28;20529;-80
2022/04/25 05:32:54;;;;;;;1.47;1.10;;;9.40;98.20;;;;;;5051987;28;20568;-80
2022/04/25 05:35:24;;;;;;;1.50;1.10;;;9.40;98.20;;;;;;5055246;28;20458;-80
2022/04/25 05:37:52;;;;;;;1.50;1.10;;;9.50;98.20;;;;;;5053618;28;20469;-80
2022/04/25 05:40:20;;;;;;;1.50;1.10;;;9.50;98.20;;;;;;5056470;28;20470;-81
2022/04/25 05:42:48;;;;;;;1.50;1.10;;;9.60;98.20;;;;;;5053304;28;21163;-79
2022/04/25 05:45:17;;;;;;;1.50;1.07;;;9.70;98.20;;;;;;5056233;28;20462;-79
2022/04/25 05:47:44;;;;;;;1.47;1.00;;;9.70;98.20;;;;;;5055215;28;20482;-79
2022/04/25 05:53:00;;;;;;;1.50;1.10;;;9.80;98.20;;;;;;5051351;28;20511;-79
2022/04/25 05:55:28;;;;;;;1.50;1.10;;;9.90;98.20;;;;;;5048885;28;20467;-79
2022/04/25 05:57:56;;;;;;;1.50;1.10;;;10.00;98.20;;;;;;5052210;28;20470;-79
2022/04/25 06:00:24;;;;;;;1.50;1.10;;;10.10;98.20;;;;;;5047419;28;20530;-79
2022/04/25 06:02:51;;;;;;;1.50;1.10;;;10.10;98.20;;;;;;5047590;28;20511;-79
2022/04/25 06:05:18;;;;;;;1.50;1.10;;;10.20;98.20;;;;;;5048100;28;20462;-79
2022/04/25 06:07:47;;;;;;;1.50;1.00;;;10.40;98.20;;;;;;5055512;28;20494;-79
2022/04/25 06:10:16;;;;;;;1.50;1.10;;;10.60;98.20;;;;;;5052493;28;20545;-78
2022/04/25 06:12:46;;;;;;;1.50;1.10;;;10.70;98.20;;;;;;5048764;28;20636;-78
2022/04/25 06:15:13;;;;;;;1.50;1.07;;;10.80;98.20;;;;;;5048524;28;20473;-78
2022/04/25 06:17:39;;;;;;;1.50;1.00;;;11.00;98.20;;;;;;5050478;28;20462;-78
2022/04/25 06:20:08;;;;;;;1.50;1.10;;;11.10;98.20;;;;;;5050406;28;20505;-78
2022/04/25 06:22:35;;;;;;;1.50;1.10;;;11.20;98.20;;;;;;5054928;28;20474;-79
2022/04/25 06:25:02;;;;;;;1.50;1.10;;;11.30;98.20;;;;;;5056674;28;21081;-78
2022/04/25 06:27:30;;;;;;;1.47;1.00;;;11.30;98.20;;;;;;5053730;28;20484;-79
2022/04/25 06:29:57;;;;;;;1.47;1.03;;;11.30;98.20;;;;;;5044274;28;21032;-79
2022/04/25 06:32:24;;;;;;;1.50;1.10;;;11.30;98.20;;;;;;5047700;28;20569;-79
2022/04/25 06:34:52;;;;;;;1.50;1.10;;;11.40;98.20;;;;;;5049311;28;20462;-79
2022/04/25 06:37:22;;;;;;;1.43;1.00;;;11.50;98.20;;;;;;5054335;28;20454;-79
2022/04/25 06:39:49;;;;;;;1.47;1.00;;;11.50;98.20;;;;;;5053040;28;20557;-80
2022/04/25 06:42:17;;;;;;;1.47;0.93;;;11.70;98.20;;;;;;5053344;28;20483;-79
2022/04/25 06:44:45;;;;;;;1.50;1.00;;;11.80;98.20;;;;;;5054799;28;20588;-79
2022/04/25 06:47:12;;;;;;;1.47;1.00;;;12.00;98.20;;;;;;5054711;28;20459;-79
2022/04/25 06:49:39;;;;;;;1.50;1.00;;;12.10;98.20;;;;;;5053057;28;20466;-79
2022/04/25 06:52:09;;;;;;;1.50;1.00;;;12.20;98.20;;;;;;5054868;28;20486;-80
2022/04/25 06:54:37;;;;;;;1.43;1.00;;;12.30;98.20;;;;;;5056455;28;20462;-79
2022/04/25 06:57:05;;;;;;;1.50;1.00;;;12.50;98.20;;;;;;5049526;28;20462;-80
2022/04/25 06:59:32;;;;;;;1.50;1.00;;;12.60;98.20;;;;;;5053612;28;20553;-79
2022/04/25 07:02:00;;;;;;;1.50;1.03;;;12.80;98.20;;;;;;5042884;28;20557;-78
2022/04/25 07:04:27;;;;;;;1.50;1.00;;;12.90;98.20;;;;;;5056688;28;20458;-80
2022/04/25 07:06:54;;;;;;;1.50;1.00;;;13.10;98.20;;;;;;5055568;28;20446;-80
2022/04/25 07:09:20;;;;;;;1.50;1.00;;;13.30;98.20;;;;;;5055658;28;20497;-80
2022/04/25 07:11:47;;;;;;;1.47;1.00;;;13.60;98.20;;;;;;5050477;28;20550;-82
2022/04/25 07:14:16;;;;;;;1.50;1.00;;;13.80;96.20;;;;;;5055880;28;21022;-80
2022/04/25 07:16:45;;;;;;;1.50;0.90;;;14.10;98.20;;;;;;5051996;28;20478;-80
2022/04/25 07:19:13;;;;;;;1.50;1.00;;;14.20;94.90;;;;;;5068979;28;20446;-81
2022/04/25 07:29:53;;;;;;;1.50;1.00;;;14.20;95.10;;;;;;5055888;28;20507;-82
2022/04/25 07:32:20;;;;;;;1.40;0.90;;;14.20;93.90;;;;;;5049930;28;20541;-80
2022/04/25 07:34:49;;;;;;;1.40;0.90;;;14.20;93.10;;;;;;5061001;28;20864;-80
2022/04/25 07:37:17;;;;;;;1.50;1.00;;;14.20;94.00;;;;;;5058912;28;20482;-81
2022/04/25 07:39:45;;;;;;;1.50;1.00;;;14.20;94.50;;;;;;5058471;28;20491;-80
2022/04/25 07:42:15;;;;;;;1.50;0.93;;;14.20;94.60;;;;;;5057903;28;20494;-81
2022/04/25 07:44:42;;;;;;;1.50;0.90;;;14.20;93.40;;;;;;5060197;28;20489;-82
2022/04/25 07:47:13;;;;;;;1.50;1.00;;;14.30;92.30;;;;;;5061522;28;20795;-80
2022/04/25 07:49:41;;;;;;;1.50;1.10;;;14.20;92.40;;;;;;5057876;28;20581;-80
2022/04/25 07:52:10;;;;;;;1.40;0.90;;;14.10;91.70;;;;;;5058896;28;20532;-80
2022/04/25 07:54:37;;;;;;;1.50;0.90;;;13.90;91.50;;;;;;5057362;28;20459;-80
2022/04/25 07:57:05;;;;;;;1.50;1.00;;;13.80;93.50;;;;;;5057611;28;20465;-80
2022/04/25 07:59:32;;;;;;;1.43;0.90;;;13.90;93.80;;;;;;5057613;28;20484;-80
2022/04/25 08:01:59;;;;;;;1.50;1.00;;;14.00;94.90;;;;;;5057689;28;20489;-80
2022/04/25 08:04:26;;;;;;;1.50;1.00;;;14.20;94.20;;;;;;5060155;28;20458;-80
2022/04/25 08:06:53;;;;;;;1.50;1.00;;;14.40;92.70;;;;;;5062692;28;20492;-80
2022/04/25 08:09:21;;;;;;;1.47;0.90;;;14.60;92.70;;;;;;5062237;28;20486;-80
2022/04/25 08:11:48;;;;;;;1.47;0.90;;;14.70;91.40;;;;;;5059947;28;20871;-79
2022/04/25 08:19:44;;;;;;;1.40;1.00;;;14.20;92.00;;;;;;5060141;28;20913;-79
2022/04/25 08:22:10;;;;;;;1.43;0.90;;;14.20;92.80;;;;;;5059981;28;20518;-78
2022/04/25 08:24:38;;;;;;;1.43;1.00;;;14.10;92.70;;;;;;5057219;28;20481;-79
2022/04/25 08:27:05;;;;;;;1.43;1.00;;;14.10;93.50;;;;;;5054538;28;20540;-79
2022/04/25 08:29:32;;;;;;;1.47;1.00;;;14.00;93.40;;;;;;5055835;28;20824;-78
2022/04/25 08:31:59;;;;;;;1.50;1.00;;;14.00;93.50;;;;;;5051456;28;20928;-77
2022/04/25 08:34:26;;;;;;;1.40;1.00;;;14.00;92.50;;;;;;5071518;28;20842;-79
2022/04/25 08:36:53;;;;;;;1.47;0.90;;;13.90;93.00;;;;;;5076952;28;20532;-79
2022/04/25 08:39:26;;;;;;;1.50;1.00;;;13.80;93.30;;;;;;5075253;28;20469;-79
2022/04/25 08:42:00;;;;;;;1.43;0.90;;;13.80;93.60;;;;;;5067699;28;20492;-79
2022/04/25 08:44:26;;;;;;;1.50;0.90;;;13.70;93.60;;;;;;5075238;28;20457;-79
2022/04/25 08:46:55;;;;;;;1.47;1.00;;;13.70;94.30;;;;;;5065474;28;20466;-78
2022/04/25 08:49:23;;;;;;;1.50;1.00;;;13.70;92.70;;;;;;5071078;28;20497;-78
2022/04/25 08:51:58;;;;;;;1.43;0.97;;;13.70;92.60;;;;;;5071672;28;20530;-78
2022/04/25 08:54:25;;;;;;;1.50;1.00;;;13.70;93.80;;;;;;5073990;28;20475;-79
2022/04/25 08:56:54;;;;;;;1.50;1.00;;;13.70;95.00;;;;;;5072706;28;20965;-79
2022/04/25 08:59:21;;;;;;;1.50;1.10;;;13.80;94.80;;;;;;5072608;28;20472;-79
2022/04/25 09:01:49;;;;;;;1.50;0.90;;;13.80;94.80;;;;;;5062243;28;20481;-78
2022/04/25 09:04:16;;;;;;;1.47;1.00;;;13.90;95.40;;;;;;5067889;28;20457;-79
2022/04/25 09:06:43;;;;;;;1.50;1.00;;;14.00;95.90;;;;;;5075856;28;20460;-79
2022/04/25 09:09:10;;;;;;;1.50;1.00;;;14.10;95.50;;;;;;5068146;28;20597;-79
2022/04/25 09:14:23;;;;;;;1.50;1.00;;;14.20;94.80;;;;;;5076417;28;20806;-79
2022/04/25 09:16:50;;;;;;;1.50;0.97;;;14.30;95.20;;;;;;5075348;28;20484;-80
2022/04/25 09:19:17;;;;;;;1.50;1.00;;;14.40;94.00;;;;;;5078053;28;20513;-81
2022/04/25 09:21:46;;;;;;;1.43;0.90;;;14.30;94.10;;;;;;5069958;28;20561;-82
2022/04/25 09:24:32;;;;;;;1.43;1.00;;;14.30;94.90;;;;;;5076490;28;20905;-80
2022/04/25 09:27:12;;;;;;;1.43;0.90;;;14.30;94.10;;;;;;5070836;28;20985;-79
2022/04/25 09:29:41;;;;;;;1.90;1.23;;;14.40;92.40;;;;;;5072305;28;20775;-81
2022/04/25 09:32:09;;;;;;;1.40;0.90;;;14.40;92.40;;;;;;5073465;28;20473;-83
2022/04/25 09:37:38;;;;;;;1.50;1.00;;;14.50;93.80;;;;;;5075709;28;20440;-80
2022/04/25 09:40:06;;;;;;;1.50;1.00;;;14.50;94.00;;;;;;5073929;28;20496;-80
2022/04/25 09:42:33;;;;;;;1.47;0.90;;;14.50;93.20;;;;;;5076701;28;20485;-79
2022/04/25 09:45:02;;;;;;;1.47;0.90;;;14.40;93.60;;;;;;5076504;28;20457;-79
2022/04/25 09:47:30;;;;;;;1.47;1.00;;;14.40;94.00;;;;;;5073713;28;21107;-79
2022/04/25 09:50:05;;;;;;;1.40;0.90;;;14.50;94.10;;;;;;5081064;28;20481;-79
2022/04/25 09:52:32;;;;;;;1.40;0.90;;;14.70;93.60;;;;;;5078764;28;20592;-79
2022/04/25 09:55:11;;;;;;;1.43;0.90;;;14.70;92.20;;;;;;5076529;28;20457;-79
2022/04/25 09:57:38;;;;;;;1.50;1.23;;;14.80;92.80;;;;;;5069406;28;20461;-80
2022/04/25 10:00:08;;;;;;;1.40;1.00;;;14.70;91.40;;;;;;5073309;28;20470;-78
2022/04/25 10:02:39;;;;;;;1.40;0.90;;;14.80;92.60;;;;;;5061857;28;21024;-80
2022/04/25 10:05:14;;;;;;;1.50;1.00;;;14.80;92.40;;;;;;5071915;28;20465;-79
2022/04/25 10:07:42;;;;;;;1.40;0.90;;;14.80;92.60;;;;;;5073899;28;20469;-79
2022/04/25 10:10:10;;;;;;;1.43;0.90;;;14.90;92.40;;;;;;5077040;28;20516;-81
2022/04/25 10:12:37;;;;;;;1.47;0.90;;;15.00;92.30;;;;;;5077514;28;20485;-81
2022/04/25 10:15:06;;;;;;;1.50;1.00;;;15.00;91.60;;;;;;5076793;28;20477;-80
2022/04/25 10:17:36;;;;;;;1.43;0.90;;;15.00;92.50;;;;;;5070388;28;20565;-78
2022/04/25 10:20:03;;;;;;;1.43;0.90;;;14.90;93.10;;;;;;5072200;28;20458;-79
2022/04/25 10:22:31;;;;;;;1.43;1.00;;;14.80;93.70;;;;;;5074189;28;20484;-79
2022/04/25 10:24:58;;;;;;;1.50;1.10;;;14.80;93.70;;;;;;5068700;28;20525;-80
2022/04/25 10:27:29;;;;;;;1.50;1.10;;;14.80;93.30;;;;;;5062024;28;20470;-80
2022/04/25 10:29:59;;;;;;;1.50;1.10;;;14.80;93.60;;;;;;5066901;28;20489;-79
2022/04/25 10:32:27;;;;;;;1.47;0.90;;;14.80;92.40;;;;;;5063362;28;20684;-77
2022/04/25 10:34:59;;;;;;;1.50;0.90;;;14.70;91.40;;;;;;5063478;28;20465;-80
2022/04/25 10:37:30;;;;;;;1.43;0.90;;;14.70;91.60;;;;;;5062407;28;20454;-77
2022/04/25 10:39:57;;;;;;;1.43;1.00;;;14.60;90.80;;;;;;5064654;28;20461;-80
2022/04/25 10:45:09;;;;;;;1.50;0.90;;;14.60;91.20;;;;;;5073842;28;20439;-81
2022/04/25 10:47:37;;;;;;;1.50;1.10;;;14.60;91.80;;;;;;5072809;28;20496;-78
2022/04/25 10:50:10;;;;;;;1.43;0.90;;;14.70;91.40;;;;;;5075244;28;20496;-78
2022/04/25 10:52:55;;;;;;;1.43;0.90;;;14.80;91.90;;;;;;5074826;28;21416;-77
2022/04/25 10:55:33;;;;;;;1.50;1.10;;;14.80;90.50;;;;;;5071582;28;20580;-81
2022/04/25 10:58:19;;;;;;;1.43;0.90;;;14.90;91.50;;;;;;5074818;28;20570;-80
2022/04/25 11:00:48;;;;;;;1.47;1.00;;;15.00;90.80;;;;;;5057593;28;20451;-80
2022/04/25 11:03:18;;;;;;;1.43;0.90;;;15.00;90.50;;;;;;5072650;28;20481;-79
2022/04/25 11:05:48;;;;;;;1.43;0.90;;;15.10;90.20;;;;;;5075296;28;20466;-79
2022/04/25 11:08:33;;;;;;;1.47;0.93;;;15.10;90.20;;;;;;5067257;28;20446;-81
2022/04/25 11:11:03;;;;;;;1.43;0.90;;;15.10;89.50;;;;;;5069263;28;20476;-82
2022/04/25 11:13:32;;;;;;;1.40;1.00;;;15.00;89.20;;;;;;5059158;28;20580;-81
2022/04/25 11:16:14;;;;;;;1.43;0.90;;;14.80;89.90;;;;;;5073306;28;20453;-81
2022/04/25 11:18:43;;;;;;;1.43;1.00;;;14.80;90.20;;;;;;5071049;28;20520;-80
2022/04/25 11:21:12;;;;;;;1.47;0.90;;;14.80;90.20;;;;;;5071156;28;20469;-77
2022/04/25 11:23:49;;;;;;;1.83;1.53;;;14.80;89.60;;;;;;5070543;28;20558;-79
2022/04/25 11:26:49;;;;;;;1.43;0.90;;;14.80;90.60;;;;;;5072868;28;20818;-83
2022/04/25 11:29:16;;;;;;;1.47;1.00;;;14.90;89.70;;;;;;5072784;28;20551;-79
2022/04/25 11:31:43;;;;;;;1.50;1.00;;;15.00;89.90;;;;;;5055618;28;20458;-78
2022/04/25 11:34:12;;;;;;;1.47;1.00;;;15.10;88.70;;;;;;5066371;28;20458;-77
2022/04/25 11:36:42;;;;;;;1.47;0.90;;;15.10;89.20;;;;;;5069666;28;20972;-80
2022/04/25 11:41:55;;;;;;;1.47;0.90;;;15.30;87.60;;;;;;5061439;28;20469;-79
2022/04/25 11:44:21;;;;;;;1.40;0.90;;;15.30;86.80;;;;;;5070082;28;20529;-77
2022/04/25 11:46:50;;;;;;;1.50;1.00;;;15.40;87.70;;;;;;5066296;28;20477;-82
2022/04/25 11:49:29;;;;;;;1.40;0.97;;;15.60;85.60;;;;;;5071600;28;20481;-79
2022/04/25 11:51:58;;;;;;;1.50;0.90;;;15.90;86.80;;;;;;5067974;28;20477;-79
2022/04/25 11:54:27;;;;;;;1.50;0.93;;;16.30;86.40;;;;;;5072156;28;20465;-77
2022/04/25 11:56:59;;;;;;;1.47;1.00;;;16.50;85.20;;;;;;5072026;28;20546;-78
2022/04/25 11:59:26;;;;;;;1.50;1.00;;;16.70;83.10;;;;;;5071331;28;20460;-80
2022/04/25 12:01:53;;;;;;;1.50;0.90;;;17.00;82.30;;;;;;5062821;28;20477;-81
2022/04/25 12:04:21;;;;;;;1.50;1.00;;;17.10;80.80;;;;;;5064460;28;20453;-80
2022/04/25 12:06:51;;;;;;;1.43;0.90;;;17.10;80.60;;;;;;5073320;28;20454;-79
2022/04/25 12:17:38;;;;;;;1.43;0.90;;;16.70;82.70;;;;;;5073725;28;20985;-79
2022/04/25 12:20:07;;;;;;;1.47;0.90;;;17.10;83.00;;;;;;5072564;28;20487;-79
2022/04/25 12:22:36;;;;;;;2.03;1.83;;;17.60;82.50;;;;;;5062898;28;20481;-79
2022/04/25 12:25:16;;;;;;;1.47;0.90;;;18.00;79.90;;;;;;5074359;28;20473;-81
2022/04/25 12:28:04;;;;;;;1.80;1.50;;;18.50;80.80;;;;;;5068555;28;20485;-79
2022/04/25 12:30:33;;;;;;;1.47;0.90;;;19.00;78.70;;;;;;5063544;28;20489;-77
2022/04/25 12:33:07;;;;;;;1.47;0.90;;;19.30;79.50;;;;;;5065549;28;20482;-78
2022/04/25 12:35:40;;;;;;;1.47;0.90;;;19.40;77.40;;;;;;5057557;28;20541;-80
2022/04/25 12:38:09;;;;;;;1.43;0.90;;;19.40;77.10;;;;;;5070684;28;20456;-78
2022/04/25 12:40:55;;;;;;;1.50;0.90;;;19.40;77.00;;;;;;5069461;28;20617;-81
2022/04/25 12:43:45;;;;;;;1.50;0.90;;;19.60;77.00;;;;;;5067814;28;20988;-82
2022/04/25 12:46:14;;;;;;;1.50;0.90;;;19.70;78.00;;;;;;5075257;28;20589;-78
2022/04/25 12:49:04;;;;;;;1.50;0.90;;;19.80;75.00;;;;;;5076594;28;20465;-83
2022/04/25 12:51:37;;;;;;;1.47;0.90;;;19.70;75.30;;;;;;5074512;28;20464;-80
2022/04/25 12:54:07;;;;;;;1.50;0.90;;;19.60;75.40;;;;;;5075356;28;20833;-79
2022/04/25 12:56:36;;;;;;;1.43;0.90;;;19.70;75.60;;;;;;5076340;28;20511;-78
2022/04/25 12:59:03;;;;;;;1.50;0.90;;;19.90;73.70;;;;;;5075910;28;21391;-80
2022/04/25 13:01:35;;;;;;;1.50;0.83;;;20.10;74.80;;;;;;5061780;28;20484;-82
2022/04/25 13:04:13;;;;;;;1.50;1.10;;;20.20;73.90;;;;;;5069676;28;20539;-83
2022/04/25 13:06:42;;;;;;;1.47;0.90;;;20.40;73.00;;;;;;5074623;28;20449;-79
2022/04/25 13:09:11;;;;;;;1.50;0.90;;;20.30;75.40;;;;;;5075886;28;20590;-78
2022/04/25 13:11:39;;;;;;;1.47;0.90;;;20.10;72.90;;;;;;5068428;28;20465;-80
2022/04/25 13:14:06;;;;;;;1.50;0.90;;;20.00;73.70;;;;;;5073714;28;20457;-79
2022/04/25 13:16:33;;;;;;;1.47;0.90;;;20.10;74.10;;;;;;5072277;28;20508;-81
2022/04/25 13:19:00;;;;;;;1.47;0.90;;;20.00;72.60;;;;;;5076309;28;20458;-81
2022/04/25 13:21:27;;;;;;;1.47;0.90;;;20.00;72.90;;;;;;5070568;28;20493;-80
2022/04/25 13:23:54;;;;;;;1.50;1.10;;;20.00;73.60;;;;;;5071873;28;20469;-78
2022/04/25 13:26:23;;;;;;;1.47;0.90;;;19.80;71.80;;;;;;5072021;28;20488;-82
2022/04/25 13:28:50;;;;;;;1.47;0.90;;;19.50;73.80;;;;;;5076507;28;20453;-81
2022/04/25 13:31:18;;;;;;;1.50;0.93;;;19.20;76.00;;;;;;5062524;28;20488;-77
2022/04/25 13:33:45;;;;;;;1.50;1.00;;;19.00;76.20;;;;;;5067291;28;20485;-79
2022/04/25 13:36:13;;;;;;;1.47;0.90;;;18.80;77.70;;;;;;5071188;28;20463;-81
2022/04/25 13:38:40;;;;;;;1.40;0.90;;;18.50;78.30;;;;;;5075385;28;21003;-79
2022/04/25 13:41:07;;;;;;;1.43;0.90;;;18.20;79.30;;;;;;5067908;28;21105;-80
2022/04/25 13:43:36;;;;;;;1.47;0.90;;;17.90;80.10;;;;;;5065241;28;20489;-80
2022/04/25 13:46:03;;;;;;;1.50;0.90;;;17.80;80.80;;;;;;5073833;28;20511;-80